Time;durP1;ratioP1;P1;durP2;ratioP2;P2;SDS_P1;SDS_P2;PMS_P1;PMS_P2;Temp;Humidity;BMP_temperature;BMP_pressure;BME280_temperature;BME280_humidity;BME280_pressure;Samples;Min_cycle;Max_cycle;Signal;HPM_P1;HPM_P2
2022/06/06 00:00:10;;;;;;;0.22;0.10;;;18.20;99.90;;;-142.70;100.00;59355.34;171707;28;1426;-68
2022/06/06 00:00:16;;;;;;;0.36;0.10;;;18.20;99.90;;;-142.70;100.00;59355.34;171255;28;1261;-69
2022/06/06 00:00:22;;;;;;;0.30;0.10;;;18.20;99.90;;;-142.70;100.00;59355.34;171237;28;987;-68
2022/06/06 00:00:28;;;;;;;0.13;0.10;;;18.20;99.90;;;-142.70;100.00;59355.34;170640;28;1283;-68
2022/06/06 00:00:34;;;;;;;0.10;0.10;;;18.20;99.90;;;-142.70;100.00;59355.34;171078;28;1279;-68
2022/06/06 00:00:40;;;;;;;0.10;0.10;;;18.20;99.90;;;-142.70;100.00;59355.34;171261;28;797;-68
2022/06/06 00:00:48;;;;;;;0.03;0.03;;;18.20;99.90;;;-142.70;100.00;59355.34;171473;28;1186;-67
2022/06/06 00:00:54;;;;;;;0.10;0.10;;;18.20;99.90;;;-142.70;100.00;59355.34;170766;28;1572;-68
2022/06/06 00:01:00;;;;;;;0.70;0.10;;;18.20;99.90;;;-142.70;100.00;59355.34;171354;28;1363;-67
2022/06/06 00:01:21;;;;;;;0.80;0.10;;;18.20;99.90;;;-142.70;100.00;59355.34;170593;29;884;-68
2022/06/06 00:01:27;;;;;;;0.64;0.14;;;18.20;99.90;;;-142.70;100.00;59355.34;170999;28;1249;-68
2022/06/06 00:01:33;;;;;;;0.30;0.20;;;18.20;99.90;;;-142.70;100.00;59355.34;171352;28;1514;-67
2022/06/06 00:01:39;;;;;;;0.50;0.20;;;18.20;99.90;;;-142.70;100.00;59355.34;172167;28;1221;-69
2022/06/06 00:01:51;;;;;;;0.50;0.20;;;18.20;99.90;;;-142.70;100.00;59355.34;173252;28;997;-68
2022/06/06 00:01:57;;;;;;;0.41;0.08;;;18.20;99.90;;;-142.70;100.00;59355.34;172244;28;1518;-67
2022/06/06 00:02:05;;;;;;;0.20;0.00;;;18.20;99.90;;;-142.70;100.00;59355.34;173061;28;1445;-69
2022/06/06 00:02:11;;;;;;;0.13;0.10;;;18.20;99.90;;;-142.70;100.00;59355.34;171881;28;903;-67
2022/06/06 00:02:17;;;;;;;0.20;0.20;;;18.20;99.90;;;-142.70;100.00;59355.34;171481;28;1632;-70
2022/06/06 00:02:26;;;;;;;0.60;0.20;;;18.20;99.90;;;-142.70;100.00;59355.34;172273;28;1336;-68
2022/06/06 00:02:31;;;;;;;0.60;0.20;;;18.20;99.90;;;-142.70;100.00;59355.34;170864;28;1266;-67
2022/06/06 00:02:38;;;;;;;0.50;0.10;;;18.20;99.90;;;-142.70;100.00;59355.34;171753;28;1536;-68
2022/06/06 00:02:45;;;;;;;0.40;0.07;;;18.20;99.90;;;-142.70;100.00;59355.34;171911;28;1205;-68
2022/06/06 00:02:51;;;;;;;0.27;0.00;;;18.20;99.90;;;-142.70;100.00;59355.34;171865;28;962;-69
2022/06/06 00:02:56;;;;;;;0.00;0.00;;;18.20;99.90;;;-142.70;100.00;59355.34;172226;28;1142;-68
2022/06/06 00:03:02;;;;;;;0.00;0.00;;;18.20;99.90;;;-142.70;100.00;59355.34;171878;28;899;-68
2022/06/06 00:03:08;;;;;;;0.00;0.00;;;18.20;99.90;;;-142.70;100.00;59355.34;171769;28;1464;-69
2022/06/06 00:03:17;;;;;;;0.60;0.08;;;18.20;99.90;;;-142.70;100.00;59355.34;171827;28;1054;-67
2022/06/06 00:03:23;;;;;;;1.20;0.10;;;18.20;99.90;;;-142.70;100.00;59355.34;171213;28;1169;-68
2022/06/06 00:03:30;;;;;;;1.60;0.10;;;18.20;99.90;;;-142.70;100.00;59355.34;170520;29;804;-68
2022/06/06 00:03:36;;;;;;;1.64;0.10;;;18.30;99.90;;;-142.70;100.00;59355.34;170978;28;1146;-69
2022/06/06 00:03:43;;;;;;;1.70;0.10;;;18.20;99.90;;;-142.70;100.00;59355.34;171192;28;1457;-67
2022/06/06 00:03:49;;;;;;;1.10;0.16;;;18.30;99.90;;;-142.70;100.00;59355.34;171730;28;1264;-68
2022/06/06 00:03:55;;;;;;;0.62;0.10;;;18.20;99.90;;;-142.70;100.00;59355.34;171788;28;1407;-68
2022/06/06 00:04:01;;;;;;;0.50;0.10;;;18.30;99.90;;;-142.70;100.00;59355.34;171982;28;1001;-68
2022/06/06 00:04:07;;;;;;;0.40;0.10;;;18.30;99.90;;;-142.70;100.00;59355.34;172441;28;982;-67
2022/06/06 00:04:15;;;;;;;0.43;0.13;;;18.30;99.90;;;-142.70;100.00;59355.34;172557;28;907;-68
2022/06/06 00:04:23;;;;;;;0.42;0.10;;;18.30;99.90;;;-142.70;100.00;59355.34;171451;28;1409;-68
2022/06/06 00:04:29;;;;;;;0.40;0.10;;;18.30;99.90;;;-142.70;100.00;59355.34;171093;28;1094;-68
2022/06/06 00:04:36;;;;;;;0.40;0.10;;;18.30;99.90;;;-142.70;100.00;59355.34;171946;28;959;-67
2022/06/06 00:04:42;;;;;;;0.36;0.10;;;18.30;99.90;;;-142.70;100.00;59355.34;171577;28;1198;-68
2022/06/06 00:04:48;;;;;;;0.13;0.10;;;18.30;99.90;;;-142.70;100.00;59355.34;171181;28;1262;-67
2022/06/06 00:04:54;;;;;;;0.10;0.10;;;18.30;99.90;;;-142.70;100.00;59355.34;171197;28;1092;-68
2022/06/06 00:05:00;;;;;;;0.10;0.10;;;18.30;99.90;;;-142.70;100.00;59355.34;171517;28;1456;-68
2022/06/06 00:05:10;;;;;;;0.10;0.10;;;18.30;99.90;;;-142.70;100.00;59355.34;171858;28;990;-69
2022/06/06 00:05:17;;;;;;;0.17;0.10;;;18.20;99.90;;;-142.70;100.00;59355.34;172448;28;1247;-68
2022/06/06 00:05:23;;;;;;;0.20;0.10;;;18.30;99.90;;;-142.70;100.00;59355.34;171571;28;1193;-68
2022/06/06 00:05:29;;;;;;;0.20;0.10;;;18.30;99.90;;;-142.70;100.00;59355.34;170550;29;990;-67
2022/06/06 00:05:36;;;;;;;0.22;0.10;;;18.30;99.90;;;-142.70;100.00;59355.34;170644;28;1201;-69
2022/06/06 00:05:47;;;;;;;0.20;0.10;;;18.30;99.90;;;-142.70;100.00;59355.34;171068;28;1387;-67
2022/06/06 00:05:53;;;;;;;0.20;0.10;;;18.30;99.90;;;-142.70;100.00;59355.34;171690;28;1365;-69
2022/06/06 00:05:58;;;;;;;0.20;0.10;;;18.30;99.90;;;-142.70;100.00;59355.34;171159;28;982;-68
2022/06/06 00:06:20;;;;;;;0.20;0.10;;;18.30;99.90;;;-142.70;100.00;59355.34;170949;28;1303;-67
2022/06/06 00:06:26;;;;;;;0.20;0.06;;;18.30;99.90;;;-142.70;100.00;59355.34;171812;28;1418;-68
2022/06/06 00:06:32;;;;;;;1.80;0.10;;;18.30;99.90;;;-142.70;100.00;59355.34;171485;28;1395;-68
2022/06/06 00:06:39;;;;;;;1.90;0.10;;;18.30;99.90;;;-142.70;100.00;59355.34;171819;28;1020;-68
2022/06/06 00:06:46;;;;;;;2.40;0.17;;;18.30;99.90;;;-142.70;100.00;59355.34;172401;28;1080;-67
2022/06/06 00:06:55;;;;;;;2.40;0.20;;;18.30;99.90;;;-142.70;100.00;59355.34;171768;28;1034;-68
2022/06/06 00:07:01;;;;;;;1.43;0.10;;;18.30;99.90;;;-142.70;100.00;59355.34;171525;28;1473;-68
2022/06/06 00:07:07;;;;;;;0.70;0.10;;;18.30;99.90;;;-142.70;100.00;59355.34;171876;28;1062;-68
2022/06/06 00:07:13;;;;;;;0.40;0.05;;;18.30;99.90;;;-142.70;100.00;59355.34;172385;28;1271;-68
2022/06/06 00:07:20;;;;;;;0.00;0.00;;;18.30;99.90;;;-142.70;100.00;59355.34;172455;28;1760;-67
2022/06/06 00:07:26;;;;;;;0.20;0.10;;;18.30;99.90;;;-142.70;100.00;59355.34;172204;28;1385;-67
2022/06/06 00:07:32;;;;;;;0.20;0.00;;;18.30;99.90;;;-142.70;100.00;59355.34;172453;28;1280;-68
2022/06/06 00:07:38;;;;;;;0.35;0.10;;;18.30;99.90;;;-142.70;100.00;59355.34;171460;28;1338;-68
2022/06/06 00:07:44;;;;;;;0.43;0.13;;;18.30;99.90;;;-142.70;100.00;59355.34;172558;28;961;-68
2022/06/06 00:07:50;;;;;;;0.55;0.17;;;18.30;99.90;;;-142.70;100.00;59355.34;172072;28;1432;-68
2022/06/06 00:07:58;;;;;;;0.40;0.10;;;18.30;99.90;;;-142.70;100.00;59355.34;172562;28;1053;-68
2022/06/06 00:08:04;;;;;;;0.47;0.10;;;18.30;99.90;;;-142.70;100.00;59355.34;172135;28;1099;-67
2022/06/06 00:08:12;;;;;;;0.40;0.10;;;18.30;99.90;;;-142.70;100.00;59355.34;171850;28;1038;-67
2022/06/06 00:08:18;;;;;;;0.30;0.10;;;18.30;99.90;;;-142.70;100.00;59355.34;172157;28;1198;-69
2022/06/06 00:08:23;;;;;;;0.30;0.00;;;18.30;99.90;;;-142.70;100.00;59355.34;172579;28;836;-67
2022/06/06 00:08:29;;;;;;;0.15;0.00;;;18.40;99.90;;;-142.70;100.00;59355.34;171616;28;940;-69
2022/06/06 00:08:36;;;;;;;0.05;0.00;;;18.40;99.90;;;-142.70;100.00;59355.34;171212;28;1053;-68
2022/06/06 00:08:42;;;;;;;0.03;0.03;;;18.40;99.90;;;-142.70;100.00;59355.34;171231;28;1500;-67
2022/06/06 00:08:49;;;;;;;0.00;0.00;;;18.40;99.90;;;-142.70;100.00;59355.34;171819;28;1436;-70
2022/06/06 00:08:55;;;;;;;0.10;0.10;;;18.40;99.90;;;-142.70;100.00;59355.34;172404;28;1043;-70
2022/06/06 00:09:00;;;;;;;0.10;0.10;;;18.40;99.90;;;-142.70;100.00;59355.34;172398;28;1312;-68
2022/06/06 00:09:10;;;;;;;0.10;0.10;;;18.40;99.90;;;-142.70;100.00;59355.34;173182;28;930;-67
2022/06/06 00:09:16;;;;;;;0.10;0.10;;;18.40;99.90;;;-142.70;100.00;59355.34;172437;28;1402;-69
2022/06/06 00:09:23;;;;;;;0.10;0.10;;;18.40;99.90;;;-142.70;100.00;59355.34;171769;28;1370;-69
2022/06/06 00:09:29;;;;;;;0.10;0.10;;;18.40;99.90;;;-142.70;100.00;59355.34;173124;28;1573;-68
2022/06/06 00:09:35;;;;;;;0.30;0.10;;;18.40;99.90;;;-142.70;100.00;59355.34;173095;28;1503;-67
2022/06/06 00:09:41;;;;;;;1.40;0.10;;;18.40;99.90;;;-142.70;100.00;59355.34;171180;28;955;-68
2022/06/06 00:09:47;;;;;;;1.40;0.07;;;18.40;99.90;;;-142.70;100.00;59355.34;171243;28;998;-69
2022/06/06 00:09:53;;;;;;;1.30;0.00;;;18.40;99.90;;;-142.70;100.00;59355.34;170782;28;1463;-69
2022/06/06 00:09:59;;;;;;;1.35;0.05;;;18.40;99.90;;;-142.70;100.00;59355.34;172390;28;1229;-68
2022/06/06 00:10:06;;;;;;;1.20;0.10;;;18.40;99.90;;;-142.70;100.00;59355.34;171322;28;2207;-68
2022/06/06 00:10:12;;;;;;;0.10;0.00;;;18.40;99.90;;;-142.70;100.00;59355.34;172208;28;1743;-69
2022/06/06 00:10:18;;;;;;;0.10;0.10;;;18.30;99.90;;;-142.70;100.00;59355.34;171776;28;1148;-67
2022/06/06 00:10:25;;;;;;;0.10;0.10;;;18.40;99.90;;;-142.70;100.00;59355.34;171758;28;1431;-68
2022/06/06 00:10:31;;;;;;;0.13;0.05;;;18.40;99.90;;;-142.70;100.00;59355.34;172297;28;1350;-68
2022/06/06 00:10:39;;;;;;;0.10;0.05;;;18.40;99.90;;;-142.70;100.00;59355.34;171910;28;908;-68
2022/06/06 00:10:57;;;;;;;0.18;0.08;;;18.40;99.90;;;-142.70;100.00;59355.34;172304;28;1377;-68
2022/06/06 00:11:04;;;;;;;0.10;0.00;;;18.30;99.90;;;-142.70;100.00;59355.34;171107;28;1201;-67
2022/06/06 00:11:11;;;;;;;0.10;0.00;;;18.30;99.90;;;-142.70;100.00;59355.34;171564;28;1163;-67
2022/06/06 00:11:17;;;;;;;0.10;0.00;;;18.30;99.90;;;-142.70;100.00;59355.34;171077;28;1103;-69
2022/06/06 00:11:24;;;;;;;0.10;0.07;;;18.30;99.90;;;-142.70;100.00;59355.34;170951;28;1112;-67
2022/06/06 00:11:35;;;;;;;0.77;0.10;;;18.30;99.90;;;-142.70;100.00;59355.34;171127;28;1431;-68
2022/06/06 00:11:42;;;;;;;1.08;0.08;;;18.30;99.90;;;-142.70;100.00;59355.34;170478;29;1137;-68
2022/06/06 00:11:48;;;;;;;1.00;0.00;;;18.30;99.90;;;-142.70;100.00;59355.34;170667;28;1088;-68
2022/06/06 00:12:04;;;;;;;1.00;0.00;;;18.30;99.90;;;-142.70;100.00;59355.34;171624;28;1424;-67
2022/06/06 00:12:10;;;;;;;0.38;0.00;;;18.30;99.90;;;-142.70;100.00;59355.34;171733;28;1465;-68
2022/06/06 00:12:16;;;;;;;0.10;0.00;;;18.40;99.90;;;-142.70;100.00;59355.34;171349;28;1472;-68
2022/06/06 00:12:23;;;;;;;0.10;0.00;;;18.40;99.90;;;-142.70;100.00;59355.34;171189;28;1729;-68
2022/06/06 00:12:29;;;;;;;1.50;0.10;;;18.30;99.90;;;-142.70;100.00;59355.34;171603;28;987;-68
2022/06/06 00:12:36;;;;;;;1.70;0.10;;;18.40;99.90;;;-142.70;100.00;59355.34;171791;28;1367;-67
2022/06/06 00:12:41;;;;;;;1.70;0.10;;;18.40;99.90;;;-142.70;100.00;59355.34;171979;28;1375;-68
2022/06/06 00:12:47;;;;;;;1.60;0.10;;;18.40;99.90;;;-142.70;100.00;59355.34;171196;28;851;-67
2022/06/06 00:12:53;;;;;;;1.60;0.10;;;18.40;99.90;;;-142.70;100.00;59355.34;171069;28;1786;-70
2022/06/06 00:12:59;;;;;;;0.20;0.00;;;18.40;99.90;;;-142.70;100.00;59355.34;171791;28;2293;-67
2022/06/06 00:13:08;;;;;;;0.00;0.00;;;18.40;99.90;;;-142.70;100.00;59355.34;171902;28;1295;-68
2022/06/06 00:13:15;;;;;;;0.10;0.10;;;18.40;99.90;;;-142.70;100.00;59355.34;172452;28;1392;-69
2022/06/06 00:13:21;;;;;;;0.18;0.10;;;18.40;99.90;;;-142.70;100.00;59355.34;172561;28;976;-68
2022/06/06 00:13:27;;;;;;;0.20;0.17;;;18.40;99.90;;;-142.70;100.00;59355.34;172518;28;1192;-67
2022/06/06 00:13:33;;;;;;;3.38;0.28;;;18.40;99.90;;;-142.70;100.00;59355.34;172187;28;1608;-68
2022/06/06 00:13:43;;;;;;;3.90;0.30;;;18.40;99.90;;;-142.70;100.00;59355.34;172331;28;1071;-68
2022/06/06 00:13:49;;;;;;;3.84;0.20;;;18.40;99.90;;;-142.70;100.00;59355.34;171573;28;1128;-68
2022/06/06 00:13:55;;;;;;;3.92;0.20;;;18.40;99.90;;;-142.70;100.00;59355.34;171910;28;1058;-68
2022/06/06 00:14:01;;;;;;;2.47;0.15;;;18.40;99.90;;;-142.70;100.00;59355.34;171256;28;1352;-68
2022/06/06 00:14:10;;;;;;;0.20;0.10;;;18.40;99.90;;;-142.70;100.00;59355.34;171057;28;1194;-69
2022/06/06 00:14:18;;;;;;;0.20;0.10;;;18.30;99.90;;;-142.70;100.00;59355.34;171617;28;1445;-68
2022/06/06 00:14:24;;;;;;;0.10;0.10;;;18.40;99.90;;;-142.70;100.00;59355.34;171688;28;989;-69
2022/06/06 00:14:31;;;;;;;0.10;0.10;;;18.40;99.90;;;-142.70;100.00;59355.34;171636;28;1319;-68
2022/06/06 00:14:37;;;;;;;0.82;0.10;;;18.30;99.90;;;-142.70;100.00;59355.34;172559;28;1013;-68
2022/06/06 00:14:44;;;;;;;1.00;0.00;;;18.30;99.90;;;-142.70;100.00;59355.34;172225;28;1242;-68
2022/06/06 00:14:50;;;;;;;1.00;0.10;;;18.30;99.90;;;-142.70;100.00;59355.34;171823;28;1081;-67
2022/06/06 00:14:56;;;;;;;1.20;0.10;;;18.30;99.90;;;-142.70;100.00;59355.34;170898;28;1472;-68
2022/06/06 00:15:04;;;;;;;1.15;0.17;;;18.30;99.90;;;-142.70;100.00;59355.34;171767;28;891;-67
2022/06/06 00:15:13;;;;;;;0.20;0.10;;;18.30;99.90;;;-142.70;100.00;59355.34;171673;28;1353;-68
2022/06/06 00:15:19;;;;;;;0.73;0.15;;;18.30;99.90;;;-142.70;100.00;59355.34;172398;28;1300;-69
2022/06/06 00:15:25;;;;;;;0.68;0.13;;;18.30;99.90;;;-142.70;100.00;59355.34;173235;28;1117;-67
2022/06/06 00:15:31;;;;;;;0.80;0.10;;;18.30;99.90;;;-142.70;100.00;59355.34;171804;28;1299;-68
2022/06/06 00:15:37;;;;;;;0.75;0.10;;;18.30;99.90;;;-142.70;100.00;59355.34;172874;28;1099;-68
2022/06/06 00:15:43;;;;;;;0.63;0.10;;;18.30;99.90;;;-142.70;100.00;59355.34;172586;28;883;-70
2022/06/06 00:15:49;;;;;;;0.30;0.10;;;18.30;99.90;;;-142.70;100.00;59355.34;171823;28;1125;-67
2022/06/06 00:15:55;;;;;;;0.67;0.10;;;18.30;99.90;;;-142.70;100.00;59355.34;171875;28;891;-68
2022/06/06 00:16:01;;;;;;;0.75;0.10;;;18.30;99.90;;;-142.70;100.00;59355.34;171097;28;1386;-69
2022/06/06 00:16:08;;;;;;;0.80;0.10;;;18.30;99.90;;;-142.70;100.00;59355.34;171757;28;1525;-67
2022/06/06 00:16:14;;;;;;;0.82;0.10;;;18.30;99.90;;;-142.70;100.00;59355.34;171698;28;1121;-68
2022/06/06 00:16:20;;;;;;;0.80;0.10;;;18.30;99.90;;;-142.70;100.00;59355.34;171683;28;1433;-67
2022/06/06 00:16:26;;;;;;;0.20;0.10;;;18.30;99.90;;;-142.70;100.00;59355.34;172188;28;955;-68
2022/06/06 00:16:32;;;;;;;0.20;0.10;;;18.30;99.90;;;-142.70;100.00;59355.34;171803;28;1349;-68
2022/06/06 00:16:39;;;;;;;0.20;0.03;;;18.30;99.90;;;-142.70;100.00;59355.34;171816;28;1195;-69
2022/06/06 00:16:45;;;;;;;0.10;0.10;;;18.30;99.90;;;-142.70;100.00;59355.34;170552;28;1323;-67
2022/06/06 00:16:51;;;;;;;0.10;0.10;;;18.30;99.90;;;-142.70;100.00;59355.34;170494;29;852;-69
2022/06/06 00:16:57;;;;;;;0.10;0.10;;;18.30;99.90;;;-142.70;100.00;59355.34;171041;28;1635;-68
2022/06/06 00:17:04;;;;;;;0.10;0.10;;;18.30;99.90;;;-142.70;100.00;59355.34;171688;28;1542;-68
2022/06/06 00:17:10;;;;;;;0.10;0.10;;;18.30;99.90;;;-142.70;100.00;59355.34;171491;28;1786;-68
2022/06/06 00:17:16;;;;;;;1.15;0.05;;;18.30;99.90;;;-142.70;100.00;59355.34;171532;28;907;-68
2022/06/06 00:17:22;;;;;;;1.20;0.00;;;18.30;99.90;;;-142.70;100.00;59355.34;172074;28;982;-67
2022/06/06 00:17:27;;;;;;;1.20;0.08;;;18.30;99.90;;;-142.70;100.00;59355.34;171917;28;919;-68
2022/06/06 00:17:34;;;;;;;1.42;0.10;;;18.30;99.90;;;-142.70;100.00;59355.34;171873;28;1173;-68
2022/06/06 00:17:40;;;;;;;1.40;0.10;;;18.30;99.90;;;-142.70;100.00;59355.34;171139;28;907;-69
2022/06/06 00:17:46;;;;;;;0.38;0.10;;;18.30;99.90;;;-142.70;100.00;59355.34;172655;28;1514;-69
2022/06/06 00:17:52;;;;;;;0.40;0.10;;;18.30;99.90;;;-142.70;100.00;59355.34;171812;28;1290;-67
2022/06/06 00:17:57;;;;;;;0.50;0.10;;;18.30;99.90;;;-142.70;100.00;59355.34;173115;28;1294;-68
2022/06/06 00:18:04;;;;;;;0.30;0.10;;;18.30;99.90;;;-142.70;100.00;59355.34;172752;28;1836;-68
2022/06/06 00:18:10;;;;;;;0.30;0.10;;;18.30;99.90;;;-142.70;100.00;59355.34;172535;28;887;-68
2022/06/06 00:18:16;;;;;;;0.28;0.10;;;18.30;99.90;;;-142.70;100.00;59355.34;171918;28;1235;-68
2022/06/06 00:18:22;;;;;;;0.20;0.10;;;18.30;99.90;;;-142.70;100.00;59355.34;171767;28;1196;-68
2022/06/06 00:18:29;;;;;;;0.10;0.00;;;18.30;99.90;;;-142.70;100.00;59355.34;172011;28;1330;-69
2022/06/06 00:18:36;;;;;;;0.10;0.00;;;18.30;99.90;;;-142.70;100.00;59355.34;172491;28;1350;-67
2022/06/06 00:18:43;;;;;;;0.22;0.10;;;18.30;99.90;;;-142.70;100.00;59355.34;172010;28;1408;-68
2022/06/06 00:18:49;;;;;;;0.20;0.10;;;18.30;99.90;;;-142.70;100.00;59355.34;171853;28;1013;-68
2022/06/06 00:18:55;;;;;;;0.10;0.10;;;18.30;99.90;;;-142.70;100.00;59355.34;171631;28;1176;-67
2022/06/06 00:19:00;;;;;;;0.20;0.10;;;18.30;99.90;;;-142.70;100.00;59355.34;171082;28;1964;-68
2022/06/06 00:19:07;;;;;;;0.17;0.10;;;18.30;99.90;;;-142.70;100.00;59355.34;172038;28;1248;-69
2022/06/06 00:19:14;;;;;;;0.06;0.06;;;18.30;99.90;;;-142.70;100.00;59355.34;171730;28;1367;-68
2022/06/06 00:19:21;;;;;;;0.00;0.00;;;18.30;99.90;;;-142.70;100.00;59355.34;171324;28;1015;-69
2022/06/06 00:19:27;;;;;;;0.00;0.00;;;18.40;99.90;;;-142.70;100.00;59355.34;172322;28;1537;-68
2022/06/06 00:19:33;;;;;;;0.06;0.00;;;18.40;99.90;;;-142.70;100.00;59355.34;171878;28;1022;-67
2022/06/06 00:19:40;;;;;;;0.10;0.00;;;18.40;99.90;;;-142.70;100.00;59355.34;172450;28;1178;-68
2022/06/06 00:19:46;;;;;;;0.10;0.00;;;18.40;99.90;;;-142.70;100.00;59355.34;172070;28;1100;-68
2022/06/06 00:19:52;;;;;;;0.52;0.00;;;18.40;99.90;;;-142.70;100.00;59355.34;173186;28;994;-68
2022/06/06 00:19:58;;;;;;;0.50;0.03;;;18.40;99.90;;;-142.70;100.00;59355.34;172740;28;1694;-68
2022/06/06 00:20:06;;;;;;;0.70;0.00;;;18.40;99.90;;;-142.70;100.00;59355.34;173086;28;1257;-67
2022/06/06 00:20:12;;;;;;;0.77;0.07;;;18.40;99.90;;;-142.70;100.00;59355.34;171762;28;1086;-67
2022/06/06 00:20:18;;;;;;;2.04;0.10;;;18.40;99.90;;;-142.70;100.00;59355.34;171679;28;1427;-68
2022/06/06 00:20:24;;;;;;;1.90;0.10;;;18.40;99.90;;;-142.70;100.00;59355.34;171141;28;1032;-70
2022/06/06 00:20:32;;;;;;;1.80;0.10;;;18.40;99.90;;;-142.70;100.00;59355.34;171486;28;1197;-67
2022/06/06 00:20:38;;;;;;;1.70;0.10;;;18.40;99.90;;;-142.70;100.00;59355.34;171722;28;1182;-68
2022/06/06 00:20:44;;;;;;;1.60;0.10;;;18.40;99.90;;;-142.70;100.00;59355.34;171698;28;1345;-68
2022/06/06 00:20:50;;;;;;;0.10;0.00;;;18.40;99.90;;;-142.70;100.00;59355.34;172432;28;1212;-68
2022/06/06 00:20:57;;;;;;;0.95;0.10;;;18.40;99.90;;;-142.70;100.00;59355.34;171785;28;1415;-68
2022/06/06 00:21:07;;;;;;;0.90;0.08;;;18.50;99.90;;;-142.70;100.00;59355.34;172339;28;1335;-68
2022/06/06 00:21:13;;;;;;;0.90;0.10;;;18.40;99.90;;;-142.70;100.00;59355.34;172353;28;1244;-68
2022/06/06 00:21:19;;;;;;;0.90;0.10;;;18.50;99.90;;;-142.70;100.00;59355.34;172327;28;1297;-70
2022/06/06 00:21:25;;;;;;;0.00;0.00;;;18.50;99.90;;;-142.70;100.00;59355.34;172428;28;1637;-68
2022/06/06 00:21:33;;;;;;;0.03;0.00;;;18.50;99.90;;;-142.70;100.00;59355.34;172506;28;803;-70
2022/06/06 00:21:42;;;;;;;0.20;0.00;;;18.40;99.90;;;-142.70;100.00;59355.34;171814;28;1043;-68
2022/06/06 00:21:48;;;;;;;0.18;0.02;;;18.50;99.90;;;-142.70;100.00;59355.34;172244;28;1309;-67
2022/06/06 00:21:55;;;;;;;0.20;0.10;;;18.50;99.90;;;-142.70;100.00;59355.34;172509;28;1263;-68
2022/06/06 00:22:01;;;;;;;0.20;0.10;;;18.50;99.90;;;-142.70;100.00;59355.34;172317;28;1363;-68
2022/06/06 00:22:08;;;;;;;2.86;0.18;;;18.40;99.90;;;-142.70;100.00;59355.34;173142;28;958;-68
2022/06/06 00:22:14;;;;;;;2.90;0.10;;;18.50;99.90;;;-142.70;100.00;59355.34;172421;28;1101;-68
2022/06/06 00:22:20;;;;;;;2.90;0.10;;;18.40;99.90;;;-142.70;100.00;59355.34;172420;28;1587;-69
2022/06/06 00:22:26;;;;;;;3.10;0.10;;;18.50;99.90;;;-142.70;100.00;59355.34;171544;28;1130;-68
2022/06/06 00:22:32;;;;;;;2.30;0.17;;;18.50;99.90;;;-142.70;100.00;59355.34;171187;28;955;-67
2022/06/06 00:22:38;;;;;;;0.30;0.03;;;18.50;99.90;;;-142.70;100.00;59355.34;171903;28;1029;-67
2022/06/06 00:22:44;;;;;;;0.30;0.10;;;18.50;99.90;;;-142.70;100.00;59355.34;171746;28;1462;-68
2022/06/06 00:22:50;;;;;;;0.32;0.10;;;18.50;99.90;;;-142.70;100.00;59355.34;172392;28;1373;-68
2022/06/06 00:22:57;;;;;;;0.35;0.08;;;18.50;99.90;;;-142.70;100.00;59355.34;171093;28;1633;-69
2022/06/06 00:23:03;;;;;;;0.57;0.17;;;18.50;99.90;;;-142.70;100.00;59355.34;171834;28;835;-68
2022/06/06 00:23:09;;;;;;;0.60;0.10;;;18.50;99.90;;;-142.70;100.00;59355.34;171177;28;997;-68
2022/06/06 00:23:16;;;;;;;0.55;0.13;;;18.50;99.90;;;-142.70;100.00;59355.34;170718;28;1082;-67
2022/06/06 00:23:22;;;;;;;0.43;0.10;;;18.50;99.90;;;-142.70;100.00;59355.34;171560;28;1321;-68
2022/06/06 00:23:28;;;;;;;0.20;0.10;;;18.50;99.90;;;-142.70;100.00;59355.34;172431;28;1351;-68
2022/06/06 00:23:35;;;;;;;0.10;0.00;;;18.50;99.90;;;-142.70;100.00;59355.34;172095;28;1082;-68
2022/06/06 00:23:41;;;;;;;0.10;0.00;;;18.50;99.90;;;-142.70;100.00;59355.34;171889;28;1384;-69
2022/06/06 00:23:48;;;;;;;0.12;0.00;;;18.50;99.90;;;-142.70;100.00;59355.34;171601;28;1265;-68
2022/06/06 00:23:59;;;;;;;0.20;0.00;;;18.50;99.90;;;-142.70;100.00;59355.34;172545;28;993;-68
2022/06/06 00:24:06;;;;;;;0.23;0.16;;;18.50;99.90;;;-142.70;100.00;59355.34;171816;28;1243;-67
2022/06/06 00:24:14;;;;;;;0.30;0.20;;;18.40;99.90;;;-142.70;100.00;59355.34;173149;28;1612;-69
2022/06/06 00:24:20;;;;;;;0.25;0.20;;;18.50;99.90;;;-142.70;100.00;59355.34;172426;28;1247;-71
2022/06/06 00:24:26;;;;;;;0.20;0.20;;;18.40;99.90;;;-142.70;100.00;59355.34;172122;28;1675;-68
2022/06/06 00:24:32;;;;;;;0.10;0.10;;;18.40;99.90;;;-142.70;100.00;59355.34;172312;28;1475;-67
2022/06/06 00:24:38;;;;;;;0.20;0.10;;;18.50;99.90;;;-142.70;100.00;59355.34;172270;28;1087;-68
2022/06/06 00:24:44;;;;;;;1.10;0.10;;;18.50;99.90;;;-142.70;100.00;59355.34;172329;28;1551;-68
2022/06/06 00:24:50;;;;;;;1.10;0.10;;;18.50;99.90;;;-142.70;100.00;59355.34;172441;28;993;-68
2022/06/06 00:24:56;;;;;;;1.20;0.10;;;18.40;99.90;;;-142.70;100.00;59355.34;171573;28;1487;-68
2022/06/06 00:25:03;;;;;;;1.13;0.10;;;18.40;99.90;;;-142.70;100.00;59355.34;171837;28;1318;-67
2022/06/06 00:25:10;;;;;;;1.17;0.10;;;18.40;99.90;;;-142.70;100.00;59355.34;171308;28;1253;-68
2022/06/06 00:25:16;;;;;;;0.10;0.00;;;18.40;99.90;;;-142.70;100.00;59355.34;171169;28;946;-68
2022/06/06 00:25:22;;;;;;;0.10;0.08;;;18.40;99.90;;;-142.70;100.00;59355.34;170917;28;1283;-68
2022/06/06 00:25:31;;;;;;;0.00;0.00;;;18.40;99.90;;;-142.70;100.00;59355.34;171800;28;1207;-68
2022/06/06 00:25:37;;;;;;;0.77;0.10;;;18.40;99.90;;;-142.70;100.00;59355.34;172451;28;1024;-69
2022/06/06 00:25:43;;;;;;;0.70;0.10;;;18.40;99.90;;;-142.70;100.00;59355.34;173031;28;1586;-68
2022/06/06 00:25:49;;;;;;;0.75;0.10;;;18.40;99.90;;;-142.70;100.00;59355.34;171971;28;1246;-68
2022/06/06 00:25:56;;;;;;;0.80;0.10;;;18.40;99.90;;;-142.70;100.00;59355.34;172398;28;1262;-68
2022/06/06 00:26:07;;;;;;;0.80;0.10;;;18.40;99.90;;;-142.70;100.00;59355.34;172803;28;1445;-68
2022/06/06 00:26:15;;;;;;;0.17;0.10;;;18.40;99.90;;;-142.70;100.00;59355.34;171915;28;1214;-67
2022/06/06 00:26:21;;;;;;;0.60;0.20;;;18.40;99.90;;;-142.70;100.00;59355.34;171055;28;1328;-68
2022/06/06 00:26:30;;;;;;;0.60;0.25;;;18.40;99.90;;;-142.70;100.00;59355.34;170738;28;1480;-68
2022/06/06 00:26:37;;;;;;;0.60;0.30;;;18.40;99.90;;;-142.70;100.00;59355.34;170478;29;1109;-69
2022/06/06 00:26:43;;;;;;;0.60;0.30;;;18.40;99.90;;;-142.70;100.00;59355.34;171104;28;1042;-67
2022/06/06 00:26:49;;;;;;;0.15;0.15;;;18.30;99.90;;;-142.70;100.00;59355.34;170759;28;1404;-69
2022/06/06 00:26:56;;;;;;;0.10;0.10;;;18.40;99.90;;;-142.70;100.00;59355.34;171297;28;1260;-67
2022/06/06 00:27:04;;;;;;;0.04;0.04;;;18.30;99.90;;;-142.70;100.00;59355.34;171144;28;891;-67
2022/06/06 00:27:10;;;;;;;0.20;0.00;;;18.40;99.90;;;-142.70;100.00;59355.34;172914;28;1398;-67
2022/06/06 00:27:16;;;;;;;0.20;0.00;;;18.30;99.90;;;-142.70;100.00;59355.34;173135;28;973;-67
2022/06/06 00:27:22;;;;;;;0.30;0.03;;;18.30;99.90;;;-142.70;100.00;59355.34;172777;28;1180;-68
2022/06/06 00:27:28;;;;;;;0.35;0.10;;;18.30;99.90;;;-142.70;100.00;59355.34;173222;28;815;-70
2022/06/06 00:27:34;;;;;;;0.50;0.10;;;18.30;99.90;;;-142.70;100.00;59355.34;172253;28;1236;-67
2022/06/06 00:27:40;;;;;;;0.68;0.10;;;18.30;99.90;;;-142.70;100.00;59355.34;173213;28;879;-67
2022/06/06 00:27:46;;;;;;;0.73;0.13;;;18.30;99.90;;;-142.70;100.00;59355.34;172838;28;1016;-68
2022/06/06 00:27:51;;;;;;;0.70;0.10;;;18.40;99.90;;;-142.70;100.00;59355.34;171824;28;1258;-68
2022/06/06 00:27:57;;;;;;;0.65;0.10;;;18.30;99.90;;;-142.70;100.00;59355.34;170900;28;1476;-68
2022/06/06 00:28:04;;;;;;;0.65;0.10;;;18.30;99.90;;;-142.70;100.00;59355.34;172453;28;1544;-68
2022/06/06 00:28:10;;;;;;;0.30;0.10;;;18.30;99.90;;;-142.70;100.00;59355.34;173145;28;1174;-70
2022/06/06 00:28:16;;;;;;;0.17;0.00;;;18.40;99.90;;;-142.70;100.00;59355.34;172499;28;1269;-68